Extreme weather reports worldwide

Highest temperatures

Station
 
Location
 
Name
 
Wind
Knots
Gust
Knots
Vis
SM
Temp/Dew
C
Baro
inHg
METAR
 
QJB OEJB Jubail, SA Jubail Airport 6.21 43/-2 29.70 OEJB 071000Z AUTO /////KT CAVOK 43/M02 Q1006 NOSIG
AMD VAAH Ahmedabad, IN Sardar Vallabhbhai Patel International Airport 7 3.73 43/15 29.68 VAAH 071030Z 26007KT 6000 SCT030 43/15 Q1005 NOSIG
KQAJ 8 6.21 42/-3 29.71 KQAJ 070956Z 23008KT 200V270 9999 CLR 43/M04 A2971 RMK AO2A SLP068 WND DATA ESTMD T04251037
HESG 6 6.21 42/2 29.85 HESG 071000Z 36006KT CAVOK 42/02 Q1011 NOSIG
DMM OEDF Ad Dammam, SA King Fahd International Airport 6 6.21 42/1 29.73 OEDF 071000Z 15006KT CAVOK 42/01 Q1007 NOSIG

Station
 
Location
 
Name
 
Wind
Knots
Gust
Knots
Vis
SM
Temp/Dew
C
Baro
inHg
METAR
 
OKAS KW Ali Al Salem Air Base 15 20 6.21 41/-1 29.70 OKAS 070958Z 25015G20KT 9999 FEW350 42/M01 A2970 RMK AO2A SLP051 T04171011
AJY DRZA Agadez, NE Mano Dayak International Airport 8 6.21 41/-1 29.88 DRZA 071000Z 12008KT CAVOK 41/M01 Q1012
HOF OEAH SA Al Ahsa Airport 5 6.21 41/-2 29.76 OEAH 071000Z 28005KT CAVOK 41/M02 Q1008 NOSIG
OEAR 4 6.21 41/15 29.82 OEAR 071000Z 26004KT CAVOK 41/15 Q1010
BSR ORMM Basrah, IQ Basrah International Airport 6 6.21 41/1 29.73 ORMM 071000Z 05006KT CAVOK 41/01 Q1007 NOSIG
BDQ VABO Vadodara, IN Vadodara Airport 4 3.73 41/17 29.68 VABO 071030Z 31004KT 6000 FEW025 41/17 Q1005 NOSIG
KQAZ 6 11 6.21 41/-7 29.89 KQAZ 071056Z AUTO VRB06G11KT 9999 CLR 42/M07 A2989 RMK AO2 SLPNO WND DATA ESTMD T04151074
AKH OEPS SA Prince Sultan Air Base 0 6.21 40/-1 29.98 OEPS 070956Z 00000KT 9999 CLR 40/M02 A2998 RMK AO2A SLP120 WND DATA ESTMD T04011018 $
ATZ HEAT Asyut, EG Asyut International Airport 10 6.21 40/9 30.00 HEAT 071000Z 05010KT CAVOK 40/09 Q1016 NOSIG
ABS HEBL Abu Simbel, EG Abu Simbel Airport 10 6.21 40/9 29.88 HEBL 071000Z 04010KT CAVOK 40/09 Q1012 NOSIG
LXR HELX Luxor, EG Luxor International Airport 5 6.21 40/11 29.88 HELX 071000Z 03005KT CAVOK 40/11 Q1012 NOSIG
DHA OEDR SA King Abdulaziz Air Base 10 6.21 40/5 29.70 OEDR 071000Z 01010KT CAVOK 40/05 Q1006
OEKJ 2 6.21 40/-2 29.91 OEKJ 071000Z VRB02KT CAVOK 40/M02 Q1013
AKW OIAG Aghajari, IR Aghajari Airport 17 6.21 40/4 29.73 OIAG 071000Z 19017KT CAVOK 40/04 Q1007
DWD OEDM Dawadmi, SA King Salman Abdulaziz Airport 15 6.21 39/-5 29.94 OEDM 071000Z 27015KT 9999 FEW040 39/M05 Q1014
MED OEMA Medina, SA Prince Mohammad Bin Abdulaziz Airport 6 6.21 39/-4 29.97 OEMA 071000Z 32006KT CAVOK 39/M04 Q1015 NOSIG
AQI OEPA Qaisumah, SA Al Qaisumah/Hafr Al Batin Airport 12 6.21 39/9 29.79 OEPA 071000Z 31012KT CAVOK 39/09 Q1009 NOSIG
RUH OERK Riyadh, SA King Khaled International Airport 5 6.21 39/4 29.88 OERK 071000Z 26005KT CAVOK 39/04 Q1012 NOSIG
XXN OERY Riyadh, SA Riyadh Air Base 4 6.21 39/-3 29.88 OERY 071000Z 26004KT CAVOK 39/M03 Q1012
WAE OEWD SA Wadi Al Dawasir Airport 4 6.21 39/9 29.85 OEWD 071000Z 14004KT CAVOK 39/09 Q1011 NOSIG
YNB OEYN Yanbu, SA Prince Abdulmohsin Bin Abdulaziz Airport 8 6.21 39/13 29.73 OEYN 071000Z 18008KT 9999 FEW040 39/13 Q1007 NOSIG
SKZ OPSK Mirpur Khas, PK Sukkur Airport 0 3.11 39/18 29.73 OPSK 071000Z 00000 5000 HZ NSC 39/18 Q1007 NOSIG
AWZ OIAW Ahwaz, IR Ahwaz Airport 8 6.21 39/11 29.68 OIAW 071030Z 19008KT CAVOK 39/11 Q1005
HESW 14 6.21 38/6 29.91 HESW 071000Z 13014KT CAVOK 38/06 Q1013
HSSK 13 6.21 38/12 29.85 HSSK 071000Z 23013KT CAVOK 38/12 Q1011 NOSIG
ABD OIAA Abadan, IR Abadan Airport 8 6.21 38/14 29.70 OIAA 071000Z 12008KT CAVOK 38/14 Q1006
LFM OISR Lamerd, IR Lamerd Airport 8 6.21 38/5 29.82 OISR 071000Z 23008KT CAVOK 38/05 Q1010 A2984 NOSIG
JLR VAJB IN Jabalpur Airport 10 3.11 38/14 29.76 VAJB 071000Z 25010KT 5000 HZ SCT030 38/14 Q1008
UDR VAUD Udaipur, IN Maharana Pratap Airport 8 2.49 38/10 29.79 VAUD 071000Z 29008KT 4000 HZ SCT030 BKN035 38/10 Q1009 TEMPO 3000 TS
BND OIKB Bandar Abbas, IR Bandar Abbas International Airport 8 6.21 38/14 29.73 OIKB 071030Z 22008KT 9999 FEW025 38/14 Q1007 A2975
LYP OPFA Faisalabad, PK Faisalabad International Airport 4 4.35 37/13 29.79 OPFA 070955Z 23004KT 7000 HZ FEW040 SCT100 37/13 Q1009 NOSIG
XJD OTBH Ar Rayyan, QA Al Udeid Air Base 5 6.21 37/7 29.80 OTBH 070956Z VRB05KT 9999 CLR 38/08 A2980 RMK SLP092 T03790077 $
BMW DATM Bordj Badji Mokhtar, DZ Bordj Badji Mokhtar Airport 3 1.86 37/1 29.88 DATM 071000Z 34003KT 3000 HZ NSC 37/01 Q1012
RMF HEMA Marsa Alam, EG Marsa Alam International Airport 22 6.21 37/9 29.88 HEMA 071000Z 35022KT CAVOK 37/09 Q1012 NOSIG
SSH HESH Sharm el-Sheikh, EG Sharm El Sheikh International Airport 14 6.21 37/7 29.88 HESH 071000Z 02014KT CAVOK 37/07 Q1012 NOSIG
OEAO 16 6.21 37/-5 29.94 OEAO 071000Z 34016KT CAVOK 37/M05 Q1014
SHW OESH SA Sharurah Airport 10 6.21 37/-1 29.91 OESH 071000Z 06010KT 9999 SCT040 SCT090 37/M01 Q1013 NOSIG
OICM 10 6.21 37/10 29.73 OICM 071000Z 23010KT CAVOK 37/10 Q1007
ZBR OIZC Chabahar, IR Konarak Airport 12 6.21 37/22 29.70 OIZC 071000Z 19012KT 9999 FEW035TCU SCT170 37/22 Q1006
IHR OIZI Iranshahr, IR Iran Shahr Airport 10 6.21 37/9 29.85 OIZI 071000Z 24010KT 9999 FEW040TCU BKN200 37/09 Q1011
RKT OMRK Ras Al Khaimah, AE Ras Al Khaimah International Airport 8 6.21 37/20 29.76 OMRK 071000Z 32008KT 280V360 9999 SCT045 37/20 Q1008 A2977
CDP VOCP Kadapa, IN Kadapa Airport 9 3.73 37/20 29.70 VOCP 071000Z 06009KT 6000 FEW020 37/20 Q1006 NOSIG
HGN VTCH TH Mae Hong Son Airport 2 6.21 37/19 29.76 VTCH 071000Z VRB02KT 9999 FEW020TCU 37/19 Q1008
STV VASU IN Surat Airport 8 3.73 37/21 29.73 VASU 071030Z 21008KT 6000 NSC 37/21 Q1007 NOSIG
VEBN 9 2.49 37/19 29.68 VEBN 071030Z 11009KT 4000 HZ NSC 37/19 Q1005 NOSIG